createdAt,value
2022-08-16T00:02:24.803Z,9.88
2022-08-16T00:04:53.355Z,8.60
2022-08-16T00:07:23.124Z,11.07
2022-08-16T00:09:52.152Z,9.65
2022-08-16T00:12:20.666Z,10.15
2022-08-16T00:14:49.237Z,10.27
2022-08-16T00:17:19.291Z,10.00
2022-08-16T00:19:53.698Z,10.60
2022-08-16T00:22:27.851Z,10.00
2022-08-16T00:24:56.546Z,11.07
2022-08-16T00:27:24.982Z,11.30
2022-08-16T00:30:08.344Z,10.88
2022-08-16T00:32:46.034Z,12.30
2022-08-16T00:35:17.172Z,11.65
2022-08-16T00:37:58.970Z,11.50
2022-08-16T00:40:36.696Z,11.90
2022-08-16T00:43:19.509Z,12.00
2022-08-16T00:45:59.900Z,12.52
2022-08-16T00:48:31.516Z,12.00
2022-08-16T00:51:01.112Z,11.40
2022-08-16T00:53:31.706Z,10.88
2022-08-16T00:56:05.507Z,10.93
2022-08-16T00:58:36.097Z,11.00
2022-08-16T01:01:08.204Z,11.20
2022-08-16T01:03:41.378Z,11.82
2022-08-16T01:06:40.003Z,11.00
2022-08-16T01:09:06.395Z,11.90
2022-08-16T01:11:53.790Z,11.30
2022-08-16T01:14:30.076Z,12.25
2022-08-16T01:17:01.007Z,11.35
2022-08-16T01:19:33.107Z,11.45
2022-08-16T01:22:57.590Z,11.60
2022-08-16T01:24:58.347Z,12.68
2022-08-16T01:27:31.070Z,11.43
2022-08-16T01:30:20.487Z,11.35
2022-08-16T01:33:01.525Z,11.88
2022-08-16T01:35:46.767Z,11.88
2022-08-16T01:38:25.698Z,12.23
2022-08-16T01:41:01.786Z,11.95
2022-08-16T01:43:32.460Z,11.65
2022-08-16T01:46:29.964Z,12.25
2022-08-16T01:48:56.452Z,12.07
2022-08-16T01:51:28.058Z,13.07
2022-08-16T01:53:57.869Z,13.63
2022-08-16T01:56:32.847Z,12.02
2022-08-16T01:59:06.568Z,11.95
2022-08-16T02:01:49.630Z,12.07
2022-08-16T02:04:47.949Z,13.75
2022-08-16T02:07:11.297Z,13.68
2022-08-16T02:09:41.502Z,14.57
2022-08-16T02:12:40.137Z,15.70
2022-08-16T02:15:01.546Z,17.13
2022-08-16T02:17:32.747Z,15.52
2022-08-16T02:20:01.269Z,15.90
2022-08-16T02:22:35.811Z,14.30
2022-08-16T02:25:09.892Z,13.75
2022-08-16T02:27:42.493Z,14.45
2022-08-16T02:30:37.075Z,14.50
2022-08-16T02:33:05.649Z,14.10
2022-08-16T02:35:53.922Z,14.23
2022-08-16T02:38:27.668Z,13.93
2022-08-16T02:40:59.162Z,14.23
2022-08-16T02:43:33.417Z,14.23
2022-08-16T02:46:07.843Z,14.27
2022-08-16T02:48:39.568Z,14.23
2022-08-16T02:51:19.429Z,14.05
2022-08-16T02:53:52.358Z,14.15
2022-08-16T02:56:22.579Z,16.40
2022-08-16T02:58:54.785Z,14.73
2022-08-16T03:01:36.685Z,14.63
2022-08-16T03:04:29.051Z,14.68
2022-08-16T03:07:10.429Z,14.18
2022-08-16T03:09:44.251Z,13.80
2022-08-16T03:12:16.712Z,13.50
2022-08-16T03:14:48.922Z,13.95
2022-08-16T03:17:21.033Z,14.10
2022-08-16T03:20:02.389Z,14.43
2022-08-16T03:22:37.301Z,14.20
2022-08-16T03:25:16.241Z,14.13
2022-08-16T03:27:54.517Z,13.75
2022-08-16T03:30:28.481Z,15.02
2022-08-16T03:33:03.539Z,14.18
2022-08-16T03:35:40.210Z,15.43
2022-08-16T03:38:33.001Z,15.20
2022-08-16T03:41:17.151Z,14.18
2022-08-16T03:43:56.069Z,15.25
2022-08-16T03:46:47.997Z,15.50
2022-08-16T03:49:36.499Z,15.77
2022-08-16T03:52:08.001Z,17.23
2022-08-16T03:54:38.430Z,16.25
2022-08-16T03:57:22.744Z,15.63
2022-08-16T03:59:53.104Z,16.80
2022-08-16T04:02:31.598Z,16.17
2022-08-16T04:05:02.081Z,15.48
2022-08-16T04:07:33.697Z,15.88
2022-08-16T04:10:35.967Z,12.32
2022-08-16T04:12:55.558Z,12.32
2022-08-16T04:15:29.536Z,11.57
2022-08-16T04:18:17.995Z,11.43
2022-08-16T04:20:46.859Z,11.50
2022-08-16T04:23:16.543Z,14.00
2022-08-16T04:25:47.149Z,14.65
2022-08-16T04:28:51.990Z,16.00
2022-08-16T04:31:07.390Z,14.52
2022-08-16T04:33:50.558Z,14.25
2022-08-16T04:36:21.444Z,14.27
2022-08-16T04:38:51.389Z,12.88
2022-08-16T04:41:32.436Z,12.55
2022-08-16T04:44:02.751Z,12.57
2022-08-16T04:47:00.992Z,11.68
2022-08-16T04:49:43.636Z,10.75
2022-08-16T04:52:32.736Z,9.95
2022-08-16T04:55:07.447Z,11.48
2022-08-16T04:57:38.446Z,10.63
2022-08-16T05:00:31.014Z,10.93
2022-08-16T05:03:01.347Z,10.98
2022-08-16T05:05:45.496Z,11.60
2022-08-16T05:08:27.967Z,11.93
2022-08-16T05:11:12.961Z,11.15
2022-08-16T05:13:46.419Z,13.07
2022-08-16T05:16:27.216Z,12.52
2022-08-16T05:19:11.814Z,13.27
2022-08-16T05:22:05.874Z,12.57
2022-08-16T05:24:38.084Z,12.85
2022-08-16T05:27:11.355Z,13.35
2022-08-16T05:30:00.931Z,12.05
2022-08-16T05:32:36.584Z,13.48
2022-08-16T05:35:17.219Z,15.15
2022-08-16T05:38:03.792Z,12.43
2022-08-16T05:40:57.263Z,11.60
2022-08-16T05:43:32.074Z,11.85
2022-08-16T05:46:28.904Z,11.55
2022-08-16T05:49:09.666Z,11.50
2022-08-16T05:51:42.617Z,10.48
2022-08-16T05:54:24.846Z,10.20
2022-08-16T05:56:56.094Z,9.68
2022-08-16T05:59:26.983Z,8.93
2022-08-16T06:01:57.339Z,8.73
2022-08-16T06:04:34.891Z,9.18
2022-08-16T06:07:08.759Z,8.75
2022-08-16T06:09:44.641Z,9.93
2022-08-16T06:12:27.039Z,8.60
2022-08-16T06:15:00.105Z,8.60
2022-08-16T06:19:18.495Z,7.97
2022-08-16T06:21:59.661Z,7.93
2022-08-16T06:24:54.098Z,8.23
2022-08-16T06:27:17.849Z,8.63
2022-08-16T06:29:49.914Z,8.43
2022-08-16T06:32:27.322Z,7.85
2022-08-16T06:35:02.439Z,8.45
2022-08-16T06:37:37.383Z,7.90
2022-08-16T06:40:12.652Z,8.50
2022-08-16T06:42:48.204Z,8.90
2022-08-16T06:45:38.103Z,9.15
2022-08-16T06:48:18.819Z,10.10
2022-08-16T06:50:50.365Z,10.35
2022-08-16T06:53:19.862Z,10.88
2022-08-16T06:56:14.648Z,9.63
2022-08-16T06:59:12.442Z,9.63
2022-08-16T07:01:54.455Z,9.68
2022-08-16T07:04:33.052Z,10.23
2022-08-16T07:07:09.781Z,9.88
2022-08-16T07:09:40.340Z,9.82
2022-08-16T07:12:10.742Z,9.55
2022-08-16T07:14:43.225Z,9.52
2022-08-16T07:17:15.812Z,9.50
2022-08-16T07:20:29.585Z,8.75
2022-08-16T07:23:01.128Z,9.40
2022-08-16T07:25:40.286Z,9.18
2022-08-16T07:28:20.683Z,9.88
2022-08-16T07:30:54.065Z,9.23
2022-08-16T07:33:52.776Z,9.20
2022-08-16T07:36:22.739Z,9.90
2022-08-16T07:38:55.251Z,9.63
2022-08-16T07:41:24.524Z,9.82
2022-08-16T07:44:00.972Z,10.48
2022-08-16T07:46:38.455Z,9.88
2022-08-16T07:49:19.238Z,9.07
2022-08-16T07:51:50.032Z,10.20
2022-08-16T07:54:32.143Z,9.73
2022-08-16T07:57:11.807Z,9.63
2022-08-16T07:59:45.986Z,9.13
2022-08-16T08:02:20.153Z,9.88
2022-08-16T08:04:58.475Z,9.40
2022-08-16T08:07:32.447Z,9.00
2022-08-16T08:10:06.304Z,8.38
2022-08-16T08:12:41.188Z,8.15
2022-08-16T08:15:14.011Z,9.05
2022-08-16T08:17:44.849Z,8.82
2022-08-16T08:20:26.554Z,8.60
2022-08-16T08:23:01.356Z,8.85
2022-08-16T08:25:54.468Z,8.93
2022-08-16T08:28:25.676Z,9.00
2022-08-16T08:31:01.117Z,9.35
2022-08-16T08:33:32.618Z,8.75
2022-08-16T08:36:07.377Z,8.98
2022-08-16T08:38:45.859Z,8.00
2022-08-16T08:41:27.713Z,9.10
2022-08-16T08:44:00.321Z,8.50
2022-08-16T08:46:35.707Z,9.43
2022-08-16T08:49:08.007Z,9.40
2022-08-16T08:51:43.301Z,9.40
2022-08-16T08:54:18.689Z,9.15
2022-08-16T08:56:54.612Z,9.48
2022-08-16T08:59:40.880Z,9.52
2022-08-16T09:02:12.123Z,8.90
2022-08-16T09:04:47.478Z,9.15
2022-08-16T09:07:19.369Z,9.05
2022-08-16T09:10:06.122Z,9.27
2022-08-16T09:12:38.383Z,9.48
2022-08-16T09:15:13.741Z,9.13
2022-08-16T09:17:51.395Z,9.95
2022-08-16T09:20:23.454Z,9.65
2022-08-16T09:22:53.020Z,9.82
2022-08-16T09:25:33.840Z,10.02
2022-08-16T09:28:09.447Z,9.80
2022-08-16T09:30:51.734Z,10.13
2022-08-16T09:33:21.349Z,9.23
2022-08-16T09:35:53.687Z,9.63
2022-08-16T09:38:32.284Z,9.45
2022-08-16T09:41:02.890Z,9.93
2022-08-16T09:44:00.174Z,9.32
2022-08-16T09:46:45.947Z,9.30
2022-08-16T09:49:12.467Z,9.32
2022-08-16T09:51:41.389Z,9.38
2022-08-16T09:54:10.924Z,9.68
2022-08-16T09:56:52.221Z,9.57
2022-08-16T09:59:30.511Z,8.95
2022-08-16T10:02:00.346Z,8.70
2022-08-16T10:04:54.694Z,8.80
2022-08-16T10:07:23.993Z,10.20
2022-08-16T10:09:53.942Z,9.73
2022-08-16T10:12:44.282Z,9.80
2022-08-16T10:15:17.921Z,8.75
2022-08-16T10:18:00.638Z,8.60
2022-08-16T10:20:35.041Z,8.50
2022-08-16T10:23:07.371Z,9.02
2022-08-16T10:27:19.426Z,7.97
2022-08-16T10:28:32.503Z,7.65
2022-08-16T10:31:11.997Z,7.75
2022-08-16T10:33:43.308Z,7.97
2022-08-16T10:36:38.846Z,8.02
2022-08-16T10:39:03.311Z,7.78
2022-08-16T10:41:33.064Z,8.77
2022-08-16T10:44:01.541Z,7.85
2022-08-16T10:46:39.748Z,7.97
2022-08-16T10:49:10.997Z,8.60
2022-08-16T10:52:00.897Z,8.48
2022-08-16T10:54:30.395Z,8.05
2022-08-16T10:57:00.494Z,8.23
2022-08-16T10:59:38.306Z,8.65
2022-08-16T11:02:59.373Z,8.35
2022-08-16T11:05:08.578Z,8.25
2022-08-16T11:07:43.340Z,8.48
2022-08-16T11:10:20.376Z,8.77
2022-08-16T11:12:52.708Z,9.43
2022-08-16T11:15:21.897Z,8.85
2022-08-16T11:20:49.185Z,8.48
2022-08-16T11:23:20.434Z,8.40
2022-08-16T11:26:20.601Z,8.90
2022-08-16T11:31:26.696Z,9.43
2022-08-16T11:33:56.520Z,9.13
2022-08-16T11:36:27.712Z,8.98
2022-08-16T11:38:58.053Z,9.00
2022-08-16T11:41:30.925Z,7.90
2022-08-16T11:44:01.158Z,8.57
2022-08-16T11:46:45.518Z,8.23
2022-08-16T11:49:17.006Z,8.27
2022-08-16T11:51:46.049Z,10.50
2022-08-16T11:54:20.360Z,8.18
2022-08-16T11:56:53.086Z,8.05
2022-08-16T11:59:28.719Z,8.93
2022-08-16T12:01:59.748Z,8.88
2022-08-16T12:04:30.231Z,8.35
2022-08-16T12:06:59.125Z,8.68
2022-08-16T12:09:29.386Z,8.75
2022-08-16T12:12:02.989Z,8.05
2022-08-16T12:14:35.524Z,8.25
2022-08-16T12:17:08.288Z,8.70
2022-08-16T12:19:38.833Z,8.23
2022-08-16T12:22:19.900Z,8.13
2022-08-16T12:24:51.234Z,8.23
2022-08-16T12:27:24.281Z,8.25
2022-08-16T12:29:53.582Z,8.50
2022-08-16T12:32:35.959Z,8.98
2022-08-16T12:35:12.207Z,8.60
2022-08-16T12:37:43.440Z,8.35
2022-08-16T12:40:24.987Z,8.02
2022-08-16T12:42:59.768Z,7.55
2022-08-16T12:45:33.473Z,7.93
2022-08-16T12:48:33.905Z,7.90
2022-08-16T12:51:20.043Z,7.80
2022-08-16T12:53:55.730Z,7.65
2022-08-16T12:56:27.903Z,7.13
2022-08-16T12:58:59.674Z,7.50
2022-08-16T13:01:32.063Z,7.93
2022-08-16T13:04:11.822Z,7.15
2022-08-16T13:06:52.067Z,7.68
2022-08-16T13:09:26.593Z,7.30
2022-08-16T13:12:04.230Z,7.22
2022-08-16T13:14:43.122Z,7.40
2022-08-16T13:17:18.855Z,6.93
2022-08-16T13:20:08.501Z,6.90
2022-08-16T13:22:42.321Z,7.10
2022-08-16T13:25:19.441Z,6.35
2022-08-16T13:28:01.731Z,6.78
2022-08-16T13:30:36.410Z,6.90
2022-08-16T13:33:10.453Z,7.28
2022-08-16T13:35:43.060Z,6.90
2022-08-16T13:38:24.577Z,6.03
2022-08-16T13:40:55.929Z,6.50
2022-08-16T13:43:26.787Z,6.75
2022-08-16T13:45:56.548Z,6.20
2022-08-16T13:48:26.092Z,6.15
2022-08-16T13:50:56.327Z,6.00
2022-08-16T13:53:28.443Z,6.72
2022-08-16T13:55:58.892Z,5.88
2022-08-16T13:58:37.395Z,6.82
2022-08-16T14:01:18.036Z,6.22
2022-08-16T14:03:47.394Z,6.05
2022-08-16T14:06:18.590Z,6.10
2022-08-16T14:08:59.253Z,6.30
2022-08-16T14:11:36.375Z,5.93
2022-08-16T14:14:06.191Z,5.47
2022-08-16T14:16:35.579Z,5.38
2022-08-16T14:19:06.946Z,5.05
2022-08-16T14:21:35.956Z,5.20
2022-08-16T14:24:07.840Z,5.72
2022-08-16T14:26:36.599Z,5.18
2022-08-16T14:29:05.090Z,5.88
2022-08-16T14:31:38.939Z,5.35
2022-08-16T14:34:11.132Z,5.47
2022-08-16T14:36:40.787Z,5.20
2022-08-16T14:39:12.689Z,5.53
2022-08-16T14:41:41.309Z,4.85
2022-08-16T14:44:09.828Z,5.72
2022-08-16T14:46:39.387Z,6.38
2022-08-16T14:49:09.828Z,6.20
2022-08-16T14:51:38.585Z,6.32
2022-08-16T14:54:11.208Z,6.25
2022-08-16T14:56:46.950Z,6.10
2022-08-16T14:59:23.332Z,6.20
2022-08-16T15:01:58.920Z,6.68
2022-08-16T15:04:32.581Z,6.10
2022-08-16T15:07:11.133Z,6.03
2022-08-16T15:09:44.759Z,5.78
2022-08-16T15:12:36.472Z,5.88
2022-08-16T15:15:12.236Z,6.03
2022-08-16T15:17:54.111Z,6.28
2022-08-16T15:20:26.189Z,6.40
2022-08-16T15:22:55.510Z,6.15
2022-08-16T15:25:27.498Z,6.18
2022-08-16T15:28:04.503Z,6.25
2022-08-16T15:30:58.268Z,6.78
2022-08-16T15:33:25.573Z,6.70
2022-08-16T15:35:58.080Z,6.55
2022-08-16T15:38:55.206Z,6.63
2022-08-16T15:41:49.151Z,5.95
2022-08-16T15:44:23.156Z,6.25
2022-08-16T15:46:56.496Z,6.10
2022-08-16T15:49:37.791Z,6.07
2022-08-16T15:52:16.815Z,5.75
2022-08-16T15:54:53.361Z,6.82
2022-08-16T15:57:24.755Z,6.53
2022-08-16T15:59:55.937Z,6.22
2022-08-16T16:02:30.884Z,7.05
2022-08-16T16:05:02.442Z,7.57
2022-08-16T16:07:33.911Z,7.10
2022-08-16T16:10:05.960Z,6.60
2022-08-16T16:12:51.751Z,5.93
2022-08-16T16:15:26.145Z,6.95
2022-08-16T16:17:58.891Z,6.43
2022-08-16T16:20:31.124Z,6.32
2022-08-16T16:23:02.489Z,6.53
2022-08-16T16:25:32.735Z,6.97
2022-08-16T16:28:02.676Z,7.03
2022-08-16T16:30:44.699Z,6.22
2022-08-16T16:33:21.090Z,7.30
2022-08-16T16:35:55.562Z,6.63
2022-08-16T16:38:30.829Z,6.72
2022-08-16T16:41:00.677Z,6.90
2022-08-16T16:43:31.933Z,6.50
2022-08-16T16:46:05.815Z,6.80
2022-08-16T16:48:52.770Z,6.00
2022-08-16T16:51:22.913Z,6.22
2022-08-16T16:53:55.937Z,6.95
2022-08-16T16:56:31.134Z,5.95
2022-08-16T16:59:04.870Z,7.78
2022-08-16T17:01:57.546Z,5.80
2022-08-16T17:04:31.850Z,6.60
2022-08-16T17:07:02.581Z,6.63
2022-08-16T17:09:32.339Z,6.78
2022-08-16T17:12:08.980Z,6.43
2022-08-16T17:14:38.508Z,6.72
2022-08-16T17:17:13.166Z,6.07
2022-08-16T17:19:43.154Z,6.78
2022-08-16T17:22:15.688Z,6.75
2022-08-16T17:24:50.581Z,6.82
2022-08-16T17:27:33.126Z,6.60
2022-08-16T17:30:15.557Z,6.82
2022-08-16T17:32:54.624Z,6.78
2022-08-16T17:35:33.999Z,7.20
2022-08-16T17:38:06.299Z,7.22
2022-08-16T17:40:47.120Z,6.90
2022-08-16T17:43:30.295Z,6.57
2022-08-16T17:45:59.470Z,6.53
2022-08-16T17:48:31.214Z,6.65
2022-08-16T17:50:59.978Z,6.93
2022-08-16T17:53:28.461Z,7.35
2022-08-16T17:55:57.043Z,7.00
2022-08-16T17:58:26.039Z,7.70
2022-08-16T18:00:56.832Z,7.22
2022-08-16T18:04:09.001Z,8.35
2022-08-16T18:06:18.773Z,7.60
2022-08-16T18:08:48.889Z,7.97
2022-08-16T18:11:25.668Z,9.02
2022-08-16T18:13:56.640Z,7.97
2022-08-16T18:16:25.630Z,8.10
2022-08-16T18:18:55.679Z,8.40
2022-08-16T18:21:41.414Z,8.52
2022-08-16T18:24:11.160Z,7.95
2022-08-16T18:26:40.248Z,8.05
2022-08-16T18:29:08.972Z,8.80
2022-08-16T18:31:37.469Z,9.05
2022-08-16T18:34:07.461Z,8.18
2022-08-16T18:36:37.219Z,8.10
2022-08-16T18:39:06.320Z,8.63
2022-08-16T18:41:37.359Z,8.57
2022-08-16T18:44:26.879Z,8.55
2022-08-16T18:46:57.187Z,9.35
2022-08-16T18:49:27.133Z,9.57
2022-08-16T18:51:58.434Z,9.43
2022-08-16T18:54:28.343Z,9.38
2022-08-16T18:56:58.244Z,10.13
2022-08-16T18:59:28.694Z,10.30
2022-08-16T19:02:04.158Z,9.60
2022-08-16T19:04:48.068Z,10.45
2022-08-16T19:07:31.283Z,10.63
2022-08-16T19:10:01.942Z,9.95
2022-08-16T19:12:38.917Z,11.40
2022-08-16T19:15:17.996Z,9.52
2022-08-16T19:17:48.071Z,9.77
2022-08-16T19:20:21.028Z,12.55
2022-08-16T19:23:10.281Z,10.57
2022-08-16T19:25:48.623Z,10.05
2022-08-16T19:28:52.087Z,10.07
2022-08-16T19:31:13.090Z,9.98
2022-08-16T19:33:52.010Z,10.32
2022-08-16T19:36:31.326Z,9.95
2022-08-16T19:39:04.395Z,9.48
2022-08-16T19:41:36.241Z,10.82
2022-08-16T19:44:05.847Z,10.20
2022-08-16T19:46:34.548Z,9.77
2022-08-16T19:49:03.209Z,10.40
2022-08-16T19:51:33.347Z,12.50
2022-08-16T19:54:01.816Z,11.48
2022-08-16T19:56:30.335Z,10.25
2022-08-16T20:01:49.375Z,9.65
2022-08-16T20:04:18.188Z,9.73
2022-08-16T20:06:48.369Z,10.07
2022-08-16T20:09:16.977Z,10.38
2022-08-16T20:11:46.432Z,10.77
2022-08-16T20:14:24.028Z,10.45
2022-08-16T20:16:56.973Z,10.70
2022-08-16T20:19:27.479Z,10.90
2022-08-16T20:22:01.854Z,10.27
2022-08-16T20:24:35.054Z,10.82
2022-08-16T20:27:06.168Z,11.50
2022-08-16T20:29:35.225Z,10.50
2022-08-16T20:32:04.600Z,10.02
2022-08-16T20:34:33.300Z,10.65
2022-08-16T20:37:03.280Z,9.85
2022-08-16T20:39:31.956Z,11.13
2022-08-16T20:42:00.461Z,10.15
2022-08-16T20:44:28.985Z,11.75
2022-08-16T20:46:57.421Z,12.23
2022-08-16T20:49:25.877Z,12.50
2022-08-16T20:51:59.175Z,12.27
2022-08-16T20:54:30.317Z,10.98
2022-08-16T20:56:58.797Z,11.35
2022-08-16T20:59:27.297Z,11.45
2022-08-16T21:01:56.428Z,13.05
2022-08-16T21:04:27.782Z,12.43
2022-08-16T21:06:58.624Z,12.07
2022-08-16T21:09:32.631Z,11.50
2022-08-16T21:12:03.037Z,10.90
2022-08-16T21:14:34.231Z,11.43
2022-08-16T21:17:03.897Z,11.60
2022-08-16T21:19:32.528Z,11.20
2022-08-16T21:22:12.209Z,11.90
2022-08-16T21:24:42.155Z,12.40
2022-08-16T21:27:11.216Z,12.90
2022-08-16T21:29:43.468Z,13.07
2022-08-16T21:32:15.467Z,13.05
2022-08-16T21:34:45.287Z,13.48
2022-08-16T21:37:15.483Z,14.10
2022-08-16T21:39:45.939Z,15.65
2022-08-16T21:42:16.498Z,15.43
2022-08-16T21:44:45.754Z,16.17
2022-08-16T21:47:14.297Z,16.10
2022-08-16T21:49:42.826Z,15.98
2022-08-16T21:52:26.457Z,15.73
2022-08-16T21:54:59.066Z,16.05
2022-08-16T21:57:27.845Z,15.13
2022-08-16T22:00:08.178Z,16.17
2022-08-16T22:02:38.759Z,16.00
2022-08-16T22:05:08.209Z,16.40
2022-08-16T22:07:37.344Z,16.52
2022-08-16T22:11:04.698Z,16.20
2022-08-16T22:12:59.043Z,15.70
2022-08-16T22:15:28.079Z,14.98
2022-08-16T22:18:00.341Z,17.52
2022-08-16T22:20:30.634Z,15.50
2022-08-16T22:23:07.331Z,15.70
2022-08-16T22:25:37.832Z,15.60
2022-08-16T22:28:07.052Z,15.20
2022-08-16T22:30:35.720Z,15.07
2022-08-16T22:33:10.158Z,13.88
2022-08-16T22:35:43.524Z,13.25
2022-08-16T22:38:56.590Z,12.98
2022-08-16T22:41:04.889Z,13.35
2022-08-16T22:43:34.823Z,14.88
2022-08-16T22:46:03.256Z,15.77
2022-08-16T22:48:32.765Z,16.30
2022-08-16T22:51:08.146Z,16.73
2022-08-16T22:53:37.444Z,16.35
2022-08-16T22:56:09.167Z,16.75
2022-08-16T22:58:37.788Z,17.77
2022-08-16T23:01:07.342Z,17.08
2022-08-16T23:03:36.508Z,18.60
2022-08-16T23:06:06.283Z,18.23
2022-08-16T23:08:40.020Z,17.63
2022-08-16T23:11:12.977Z,17.98
2022-08-16T23:13:52.853Z,18.77
2022-08-16T23:16:24.852Z,19.15
2022-08-16T23:18:59.376Z,19.17
2022-08-16T23:21:27.910Z,19.13
2022-08-16T23:23:56.326Z,19.10
2022-08-16T23:26:46.735Z,20.35
2022-08-16T23:29:24.692Z,20.92
2022-08-16T23:31:56.901Z,19.95
2022-08-16T23:34:26.949Z,26.20
2022-08-16T23:36:55.787Z,20.55
2022-08-16T23:39:25.166Z,21.50
2022-08-16T23:41:55.769Z,21.20
2022-08-16T23:44:56.088Z,22.48
2022-08-16T23:47:13.239Z,22.35
2022-08-16T23:49:56.467Z,21.48
2022-08-16T23:52:53.247Z,21.27
2022-08-16T23:55:17.151Z,20.05
2022-08-16T23:57:47.507Z,19.60
